Plattsburgh International Airport

Airport
ICAO code: 
KPBG
Summary
ICAO Region: 
NAM
Territory: 
Location: 
Plattsburgh, New York,
Coordinates: 
Aerial View: 
44° 40' 9.072" N, 73° 28' 19.871" W
Airport WX: 
Cumulonimbus
Metar
Observation
KPBG 021453Z AUTO 17012G19KT 10SM FEW070 BKN085 06/01 A2959 RMK AO2 SLP021 T00610011 58034
Station
Plattsburgh Air Force Base
Date/Time
2021-12-02 14:53:00
Wind direction
170°
Wind speed
12 kts
Lowest cloud amount
few clouds
Temperature
6.1°C
Dew point
1.1°C
Humidity
70%
Weather condition
n/a

Description

Plattsburgh International Airport is a public use airport located 6 km south of the central business district of Plattsburgh, a city in Clinton County, New York.

Climatology

Humid Continental climate (Köppen climate classification Dfb) - Variable weather patterns and a large seasonal temperature variance. Summers are often warm and humid with frequent thunderstorms and winters can be very cold with frequent snowfall and persistent snow cover.

Runways

Designator Length Width Surface Rops
17/35 3584 61 CON No/No
Airport map: 
Aerial View: 

SKYbrary Partners:

Safety knowledge contributed by: